sensor_id;sensor_type;location;lat;lon;timestamp;P1;durP1;ratioP1;P2;durP2;ratioP2
36963;SDS011;22878;48.616;35.326;2023-06-05T00:01:40;3.60;;;1.40;;
36963;SDS011;22878;48.616;35.326;2023-06-05T00:04:06;4.80;;;1.50;;
36963;SDS011;22878;48.616;35.326;2023-06-05T00:06:31;1.90;;;1.40;;
36963;SDS011;22878;48.616;35.326;2023-06-05T00:08:57;3.80;;;1.50;;
36963;SDS011;22878;48.616;35.326;2023-06-05T00:11:23;5.30;;;1.50;;
36963;SDS011;22878;48.616;35.326;2023-06-05T00:13:48;4.10;;;1.70;;
36963;SDS011;22878;48.616;35.326;2023-06-05T00:16:17;2.40;;;1.70;;
36963;SDS011;22878;48.616;35.326;2023-06-05T00:18:43;3.30;;;1.40;;
36963;SDS011;22878;48.616;35.326;2023-06-05T00:21:12;3.70;;;1.50;;
36963;SDS011;22878;48.616;35.326;2023-06-05T00:23:38;2.60;;;1.60;;
36963;SDS011;22878;48.616;35.326;2023-06-05T00:26:03;2.60;;;1.70;;
36963;SDS011;22878;48.616;35.326;2023-06-05T00:28:29;7.10;;;1.80;;
36963;SDS011;22878;48.616;35.326;2023-06-05T00:30:55;5.30;;;1.60;;
36963;SDS011;22878;48.616;35.326;2023-06-05T00:33:20;7.30;;;1.70;;
36963;SDS011;22878;48.616;35.326;2023-06-05T00:35:46;2.80;;;1.70;;
36963;SDS011;22878;48.616;35.326;2023-06-05T00:38:11;2.00;;;1.50;;
36963;SDS011;22878;48.616;35.326;2023-06-05T00:40:37;3.40;;;1.60;;
36963;SDS011;22878;48.616;35.326;2023-06-05T00:43:02;3.40;;;1.40;;
36963;SDS011;22878;48.616;35.326;2023-06-05T00:45:28;5.70;;;1.70;;
36963;SDS011;22878;48.616;35.326;2023-06-05T00:47:53;2.80;;;1.40;;
36963;SDS011;22878;48.616;35.326;2023-06-05T00:50:20;2.10;;;1.60;;
36963;SDS011;22878;48.616;35.326;2023-06-05T00:52:50;2.40;;;1.50;;
36963;SDS011;22878;48.616;35.326;2023-06-05T00:55:17;4.00;;;1.70;;
36963;SDS011;22878;48.616;35.326;2023-06-05T00:57:42;2.70;;;1.70;;
36963;SDS011;22878;48.616;35.326;2023-06-05T01:00:09;2.50;;;1.60;;
36963;SDS011;22878;48.616;35.326;2023-06-05T01:02:38;3.10;;;1.70;;
36963;SDS011;22878;48.616;35.326;2023-06-05T01:05:05;4.70;;;1.60;;
36963;SDS011;22878;48.616;35.326;2023-06-05T01:07:34;2.20;;;1.40;;
36963;SDS011;22878;48.616;35.326;2023-06-05T01:10:04;3.70;;;1.50;;
36963;SDS011;22878;48.616;35.326;2023-06-05T01:15:19;8.80;;;1.80;;
36963;SDS011;22878;48.616;35.326;2023-06-05T01:17:53;3.90;;;1.50;;
36963;SDS011;22878;48.616;35.326;2023-06-05T01:20:31;4.80;;;1.70;;
36963;SDS011;22878;48.616;35.326;2023-06-05T01:22:57;3.50;;;1.70;;
36963;SDS011;22878;48.616;35.326;2023-06-05T01:25:23;3.40;;;1.60;;
36963;SDS011;22878;48.616;35.326;2023-06-05T01:27:58;3.50;;;1.70;;
36963;SDS011;22878;48.616;35.326;2023-06-05T01:30:44;5.10;;;1.90;;
36963;SDS011;22878;48.616;35.326;2023-06-05T01:33:40;3.70;;;1.70;;
36963;SDS011;22878;48.616;35.326;2023-06-05T01:36:17;4.80;;;1.90;;
36963;SDS011;22878;48.616;35.326;2023-06-05T01:38:43;4.90;;;2.10;;
36963;SDS011;22878;48.616;35.326;2023-06-05T01:41:10;3.10;;;1.50;;
36963;SDS011;22878;48.616;35.326;2023-06-05T01:43:38;3.70;;;1.70;;
36963;SDS011;22878;48.616;35.326;2023-06-05T01:46:05;3.50;;;1.60;;
36963;SDS011;22878;48.616;35.326;2023-06-05T01:48:34;6.00;;;1.80;;
36963;SDS011;22878;48.616;35.326;2023-06-05T01:51:00;5.20;;;1.70;;
36963;SDS011;22878;48.616;35.326;2023-06-05T01:53:27;6.90;;;1.80;;
36963;SDS011;22878;48.616;35.326;2023-06-05T01:55:53;2.60;;;1.60;;
36963;SDS011;22878;48.616;35.326;2023-06-05T01:58:22;2.40;;;1.50;;
36963;SDS011;22878;48.616;35.326;2023-06-05T02:00:49;4.40;;;1.90;;
36963;SDS011;22878;48.616;35.326;2023-06-05T02:03:15;3.00;;;1.70;;
36963;SDS011;22878;48.616;35.326;2023-06-05T02:05:41;5.30;;;2.10;;
36963;SDS011;22878;48.616;35.326;2023-06-05T02:08:07;4.80;;;1.80;;
36963;SDS011;22878;48.616;35.326;2023-06-05T02:10:34;4.00;;;1.90;;
36963;SDS011;22878;48.616;35.326;2023-06-05T02:13:00;2.70;;;1.90;;
36963;SDS011;22878;48.616;35.326;2023-06-05T02:15:26;4.00;;;1.80;;
36963;SDS011;22878;48.616;35.326;2023-06-05T02:17:51;5.80;;;2.10;;
36963;SDS011;22878;48.616;35.326;2023-06-05T02:20:19;5.70;;;2.10;;
36963;SDS011;22878;48.616;35.326;2023-06-05T02:22:47;6.70;;;2.20;;
36963;SDS011;22878;48.616;35.326;2023-06-05T02:25:17;9.80;;;1.90;;
36963;SDS011;22878;48.616;35.326;2023-06-05T02:27:44;4.40;;;2.30;;
36963;SDS011;22878;48.616;35.326;2023-06-05T02:30:09;3.10;;;1.80;;
36963;SDS011;22878;48.616;35.326;2023-06-05T02:32:36;5.90;;;1.80;;
36963;SDS011;22878;48.616;35.326;2023-06-05T02:35:07;4.80;;;1.70;;
36963;SDS011;22878;48.616;35.326;2023-06-05T02:37:33;3.80;;;1.80;;
36963;SDS011;22878;48.616;35.326;2023-06-05T02:40:08;5.00;;;1.80;;
36963;SDS011;22878;48.616;35.326;2023-06-05T02:42:35;4.60;;;1.90;;
36963;SDS011;22878;48.616;35.326;2023-06-05T02:45:01;3.60;;;1.80;;
36963;SDS011;22878;48.616;35.326;2023-06-05T02:47:29;5.70;;;1.70;;
36963;SDS011;22878;48.616;35.326;2023-06-05T02:49:54;3.50;;;1.70;;
36963;SDS011;22878;48.616;35.326;2023-06-05T02:52:20;6.30;;;1.50;;
36963;SDS011;22878;48.616;35.326;2023-06-05T02:54:46;3.10;;;1.60;;
36963;SDS011;22878;48.616;35.326;2023-06-05T02:57:12;5.70;;;1.60;;
36963;SDS011;22878;48.616;35.326;2023-06-05T02:59:39;3.40;;;1.80;;
36963;SDS011;22878;48.616;35.326;2023-06-05T03:02:07;4.70;;;2.00;;
36963;SDS011;22878;48.616;35.326;2023-06-05T03:04:33;3.40;;;1.80;;
36963;SDS011;22878;48.616;35.326;2023-06-05T03:06:59;4.40;;;2.00;;
36963;SDS011;22878;48.616;35.326;2023-06-05T03:09:31;6.40;;;2.10;;
36963;SDS011;22878;48.616;35.326;2023-06-05T03:11:57;5.80;;;2.40;;
36963;SDS011;22878;48.616;35.326;2023-06-05T03:14:24;6.40;;;2.30;;
36963;SDS011;22878;48.616;35.326;2023-06-05T03:16:51;5.10;;;2.30;;
36963;SDS011;22878;48.616;35.326;2023-06-05T03:19:18;7.60;;;2.40;;
36963;SDS011;22878;48.616;35.326;2023-06-05T03:21:44;4.80;;;2.10;;
36963;SDS011;22878;48.616;35.326;2023-06-05T03:24:11;4.40;;;1.90;;
36963;SDS011;22878;48.616;35.326;2023-06-05T03:26:41;4.40;;;2.20;;
36963;SDS011;22878;48.616;35.326;2023-06-05T03:29:07;3.40;;;2.20;;
36963;SDS011;22878;48.616;35.326;2023-06-05T03:31:33;4.20;;;2.10;;
36963;SDS011;22878;48.616;35.326;2023-06-05T03:34:00;5.70;;;2.40;;
36963;SDS011;22878;48.616;35.326;2023-06-05T03:36:27;4.90;;;2.30;;
36963;SDS011;22878;48.616;35.326;2023-06-05T03:38:53;7.50;;;3.10;;
36963;SDS011;22878;48.616;35.326;2023-06-05T03:41:19;6.90;;;2.10;;
36963;SDS011;22878;48.616;35.326;2023-06-05T03:43:45;4.50;;;2.40;;
36963;SDS011;22878;48.616;35.326;2023-06-05T03:46:11;6.50;;;2.70;;
36963;SDS011;22878;48.616;35.326;2023-06-05T03:48:43;6.00;;;2.60;;
36963;SDS011;22878;48.616;35.326;2023-06-05T03:51:08;5.90;;;2.80;;
36963;SDS011;22878;48.616;35.326;2023-06-05T03:53:34;6.70;;;2.60;;
36963;SDS011;22878;48.616;35.326;2023-06-05T03:56:05;4.70;;;2.40;;
36963;SDS011;22878;48.616;35.326;2023-06-05T03:58:32;4.80;;;2.60;;
36963;SDS011;22878;48.616;35.326;2023-06-05T04:00:57;5.70;;;2.30;;
36963;SDS011;22878;48.616;35.326;2023-06-05T04:03:23;7.00;;;2.70;;
36963;SDS011;22878;48.616;35.326;2023-06-05T04:05:50;6.80;;;2.50;;
36963;SDS011;22878;48.616;35.326;2023-06-05T04:08:16;5.80;;;2.90;;
36963;SDS011;22878;48.616;35.326;2023-06-05T04:10:41;15.40;;;2.80;;
36963;SDS011;22878;48.616;35.326;2023-06-05T04:13:10;5.50;;;2.80;;
36963;SDS011;22878;48.616;35.326;2023-06-05T04:15:35;14.10;;;3.10;;
36963;SDS011;22878;48.616;35.326;2023-06-05T04:18:02;7.70;;;3.20;;
36963;SDS011;22878;48.616;35.326;2023-06-05T04:20:27;12.00;;;3.00;;
36963;SDS011;22878;48.616;35.326;2023-06-05T04:22:53;8.20;;;3.50;;
36963;SDS011;22878;48.616;35.326;2023-06-05T04:25:19;4.80;;;2.60;;
36963;SDS011;22878;48.616;35.326;2023-06-05T04:27:45;8.30;;;2.80;;
36963;SDS011;22878;48.616;35.326;2023-06-05T04:30:13;5.70;;;2.40;;
36963;SDS011;22878;48.616;35.326;2023-06-05T04:32:39;6.20;;;2.50;;
36963;SDS011;22878;48.616;35.326;2023-06-05T04:35:07;5.50;;;2.50;;
36963;SDS011;22878;48.616;35.326;2023-06-05T04:37:34;9.30;;;3.00;;
36963;SDS011;22878;48.616;35.326;2023-06-05T04:40:01;10.50;;;2.70;;
36963;SDS011;22878;48.616;35.326;2023-06-05T04:42:34;4.70;;;2.60;;
36963;SDS011;22878;48.616;35.326;2023-06-05T04:45:01;8.20;;;2.90;;
36963;SDS011;22878;48.616;35.326;2023-06-05T04:47:29;12.40;;;2.60;;
36963;SDS011;22878;48.616;35.326;2023-06-05T04:50:00;6.70;;;2.70;;
36963;SDS011;22878;48.616;35.326;2023-06-05T04:52:28;4.30;;;2.50;;
36963;SDS011;22878;48.616;35.326;2023-06-05T04:54:55;4.70;;;2.60;;
36963;SDS011;22878;48.616;35.326;2023-06-05T04:57:21;6.40;;;3.00;;
36963;SDS011;22878;48.616;35.326;2023-06-05T04:59:49;9.30;;;2.60;;
36963;SDS011;22878;48.616;35.326;2023-06-05T05:02:16;5.00;;;2.80;;
36963;SDS011;22878;48.616;35.326;2023-06-05T05:04:42;5.60;;;2.50;;
36963;SDS011;22878;48.616;35.326;2023-06-05T05:07:07;4.60;;;2.70;;
36963;SDS011;22878;48.616;35.326;2023-06-05T05:09:38;4.60;;;2.10;;
36963;SDS011;22878;48.616;35.326;2023-06-05T05:12:04;7.60;;;2.60;;
36963;SDS011;22878;48.616;35.326;2023-06-05T05:14:29;7.10;;;2.60;;
36963;SDS011;22878;48.616;35.326;2023-06-05T05:16:55;6.10;;;2.50;;
36963;SDS011;22878;48.616;35.326;2023-06-05T05:19:21;4.10;;;2.60;;
36963;SDS011;22878;48.616;35.326;2023-06-05T05:21:49;4.60;;;2.30;;
36963;SDS011;22878;48.616;35.326;2023-06-05T05:24:15;3.00;;;2.20;;
36963;SDS011;22878;48.616;35.326;2023-06-05T05:26:43;5.30;;;2.70;;
36963;SDS011;22878;48.616;35.326;2023-06-05T05:29:09;8.60;;;3.10;;
36963;SDS011;22878;48.616;35.326;2023-06-05T05:31:34;9.50;;;3.10;;
36963;SDS011;22878;48.616;35.326;2023-06-05T05:34:00;6.00;;;2.60;;
36963;SDS011;22878;48.616;35.326;2023-06-05T05:36:26;5.40;;;2.30;;
36963;SDS011;22878;48.616;35.326;2023-06-05T05:38:55;5.60;;;2.50;;
36963;SDS011;22878;48.616;35.326;2023-06-05T05:41:21;8.00;;;2.50;;
36963;SDS011;22878;48.616;35.326;2023-06-05T05:43:47;7.90;;;2.50;;
36963;SDS011;22878;48.616;35.326;2023-06-05T05:46:13;3.60;;;2.20;;
36963;SDS011;22878;48.616;35.326;2023-06-05T05:48:39;8.70;;;2.50;;
36963;SDS011;22878;48.616;35.326;2023-06-05T05:51:05;4.70;;;2.30;;
36963;SDS011;22878;48.616;35.326;2023-06-05T05:53:31;4.40;;;2.30;;
36963;SDS011;22878;48.616;35.326;2023-06-05T05:55:57;4.60;;;2.30;;
36963;SDS011;22878;48.616;35.326;2023-06-05T05:58:22;4.60;;;2.30;;
36963;SDS011;22878;48.616;35.326;2023-06-05T06:00:48;4.40;;;2.40;;
36963;SDS011;22878;48.616;35.326;2023-06-05T06:03:13;6.60;;;2.40;;
36963;SDS011;22878;48.616;35.326;2023-06-05T06:05:39;4.80;;;2.30;;
36963;SDS011;22878;48.616;35.326;2023-06-05T06:08:05;2.80;;;2.20;;
36963;SDS011;22878;48.616;35.326;2023-06-05T06:10:31;6.50;;;2.10;;
36963;SDS011;22878;48.616;35.326;2023-06-05T06:12:57;6.10;;;2.00;;
36963;SDS011;22878;48.616;35.326;2023-06-05T06:15:23;5.40;;;2.20;;
36963;SDS011;22878;48.616;35.326;2023-06-05T06:17:49;10.80;;;2.10;;
36963;SDS011;22878;48.616;35.326;2023-06-05T06:20:14;5.10;;;2.10;;
36963;SDS011;22878;48.616;35.326;2023-06-05T06:22:41;3.90;;;2.00;;
36963;SDS011;22878;48.616;35.326;2023-06-05T06:25:08;3.10;;;2.10;;
36963;SDS011;22878;48.616;35.326;2023-06-05T06:27:37;4.60;;;2.60;;
36963;SDS011;22878;48.616;35.326;2023-06-05T06:30:03;5.60;;;2.10;;
36963;SDS011;22878;48.616;35.326;2023-06-05T06:32:30;5.40;;;2.40;;
36963;SDS011;22878;48.616;35.326;2023-06-05T06:34:56;3.50;;;2.00;;
36963;SDS011;22878;48.616;35.326;2023-06-05T06:37:22;3.80;;;2.30;;
36963;SDS011;22878;48.616;35.326;2023-06-05T06:39:48;2.60;;;2.00;;
36963;SDS011;22878;48.616;35.326;2023-06-05T06:42:14;3.60;;;2.00;;
36963;SDS011;22878;48.616;35.326;2023-06-05T06:44:40;3.90;;;1.90;;
36963;SDS011;22878;48.616;35.326;2023-06-05T06:47:06;5.00;;;1.80;;
36963;SDS011;22878;48.616;35.326;2023-06-05T06:49:33;3.10;;;2.20;;
36963;SDS011;22878;48.616;35.326;2023-06-05T06:52:03;3.20;;;2.00;;
36963;SDS011;22878;48.616;35.326;2023-06-05T06:54:29;5.10;;;1.90;;
36963;SDS011;22878;48.616;35.326;2023-06-05T06:56:55;2.70;;;1.90;;
36963;SDS011;22878;48.616;35.326;2023-06-05T06:59:21;4.30;;;1.80;;
36963;SDS011;22878;48.616;35.326;2023-06-05T07:01:48;4.30;;;2.20;;
36963;SDS011;22878;48.616;35.326;2023-06-05T07:04:34;5.90;;;2.50;;
36963;SDS011;22878;48.616;35.326;2023-06-05T07:07:00;19.50;;;3.80;;
36963;SDS011;22878;48.616;35.326;2023-06-05T07:09:26;6.00;;;2.00;;
36963;SDS011;22878;48.616;35.326;2023-06-05T07:11:53;2.20;;;1.70;;
36963;SDS011;22878;48.616;35.326;2023-06-05T07:14:19;4.40;;;2.00;;
36963;SDS011;22878;48.616;35.326;2023-06-05T07:16:45;2.20;;;1.60;;
36963;SDS011;22878;48.616;35.326;2023-06-05T07:19:11;4.40;;;2.00;;
36963;SDS011;22878;48.616;35.326;2023-06-05T07:21:40;2.90;;;1.80;;
36963;SDS011;22878;48.616;35.326;2023-06-05T07:24:05;6.50;;;1.70;;
36963;SDS011;22878;48.616;35.326;2023-06-05T07:26:31;9.20;;;1.80;;
36963;SDS011;22878;48.616;35.326;2023-06-05T07:28:57;5.30;;;2.10;;
36963;SDS011;22878;48.616;35.326;2023-06-05T07:31:28;8.70;;;1.50;;
36963;SDS011;22878;48.616;35.326;2023-06-05T07:33:55;1.60;;;1.50;;
36963;SDS011;22878;48.616;35.326;2023-06-05T07:36:21;5.70;;;1.80;;
36963;SDS011;22878;48.616;35.326;2023-06-05T07:38:47;5.70;;;1.60;;
36963;SDS011;22878;48.616;35.326;2023-06-05T07:41:13;4.60;;;1.50;;
36963;SDS011;22878;48.616;35.326;2023-06-05T07:43:39;3.60;;;1.40;;
36963;SDS011;22878;48.616;35.326;2023-06-05T07:46:07;7.80;;;1.70;;
36963;SDS011;22878;48.616;35.326;2023-06-05T07:48:34;2.30;;;1.40;;
36963;SDS011;22878;48.616;35.326;2023-06-05T07:51:00;2.40;;;1.50;;
36963;SDS011;22878;48.616;35.326;2023-06-05T07:53:26;2.20;;;1.40;;
36963;SDS011;22878;48.616;35.326;2023-06-05T07:55:52;2.50;;;1.30;;
36963;SDS011;22878;48.616;35.326;2023-06-05T07:58:18;4.70;;;1.40;;
36963;SDS011;22878;48.616;35.326;2023-06-05T08:00:43;2.90;;;1.60;;
36963;SDS011;22878;48.616;35.326;2023-06-05T08:03:15;3.70;;;1.30;;
36963;SDS011;22878;48.616;35.326;2023-06-05T08:05:48;1.80;;;1.40;;
36963;SDS011;22878;48.616;35.326;2023-06-05T08:08:14;1.20;;;1.10;;
36963;SDS011;22878;48.616;35.326;2023-06-05T08:10:43;2.60;;;1.50;;
36963;SDS011;22878;48.616;35.326;2023-06-05T08:13:09;6.90;;;2.20;;
36963;SDS011;22878;48.616;35.326;2023-06-05T08:15:35;5.70;;;1.60;;
36963;SDS011;22878;48.616;35.326;2023-06-05T08:18:01;4.10;;;1.70;;
36963;SDS011;22878;48.616;35.326;2023-06-05T08:20:27;5.10;;;1.70;;
36963;SDS011;22878;48.616;35.326;2023-06-05T08:22:54;7.00;;;1.40;;
36963;SDS011;22878;48.616;35.326;2023-06-05T08:28:07;3.60;;;1.60;;
36963;SDS011;22878;48.616;35.326;2023-06-05T08:30:35;6.60;;;1.70;;
36963;SDS011;22878;48.616;35.326;2023-06-05T08:33:02;5.70;;;2.10;;
36963;SDS011;22878;48.616;35.326;2023-06-05T08:35:27;7.30;;;1.60;;
36963;SDS011;22878;48.616;35.326;2023-06-05T08:37:53;3.60;;;1.60;;
36963;SDS011;22878;48.616;35.326;2023-06-05T08:40:22;1.90;;;1.40;;
36963;SDS011;22878;48.616;35.326;2023-06-05T08:42:50;4.80;;;1.70;;
36963;SDS011;22878;48.616;35.326;2023-06-05T08:45:16;2.40;;;1.40;;
36963;SDS011;22878;48.616;35.326;2023-06-05T08:47:42;3.70;;;1.40;;
36963;SDS011;22878;48.616;35.326;2023-06-05T08:50:11;2.20;;;1.40;;
36963;SDS011;22878;48.616;35.326;2023-06-05T08:52:40;3.60;;;1.30;;
36963;SDS011;22878;48.616;35.326;2023-06-05T08:55:08;2.90;;;1.30;;
36963;SDS011;22878;48.616;35.326;2023-06-05T08:57:40;6.30;;;1.50;;
36963;SDS011;22878;48.616;35.326;2023-06-05T09:00:07;6.80;;;2.00;;
36963;SDS011;22878;48.616;35.326;2023-06-05T09:02:37;2.10;;;1.60;;
36963;SDS011;22878;48.616;35.326;2023-06-05T09:05:04;3.00;;;1.80;;
36963;SDS011;22878;48.616;35.326;2023-06-05T09:07:30;1.80;;;1.30;;
36963;SDS011;22878;48.616;35.326;2023-06-05T09:09:56;3.30;;;1.20;;
36963;SDS011;22878;48.616;35.326;2023-06-05T09:12:22;3.20;;;1.30;;
36963;SDS011;22878;48.616;35.326;2023-06-05T09:14:49;4.70;;;1.50;;
36963;SDS011;22878;48.616;35.326;2023-06-05T09:17:15;2.50;;;1.20;;
36963;SDS011;22878;48.616;35.326;2023-06-05T09:19:42;4.10;;;1.20;;
36963;SDS011;22878;48.616;35.326;2023-06-05T09:22:08;1.60;;;1.10;;
36963;SDS011;22878;48.616;35.326;2023-06-05T09:24:35;1.60;;;1.10;;
36963;SDS011;22878;48.616;35.326;2023-06-05T09:27:06;6.30;;;1.20;;
36963;SDS011;22878;48.616;35.326;2023-06-05T09:29:34;3.80;;;1.40;;
36963;SDS011;22878;48.616;35.326;2023-06-05T09:32:05;2.30;;;1.10;;
36963;SDS011;22878;48.616;35.326;2023-06-05T09:34:35;3.90;;;1.20;;
36963;SDS011;22878;48.616;35.326;2023-06-05T09:37:03;2.50;;;1.10;;
36963;SDS011;22878;48.616;35.326;2023-06-05T09:39:33;1.40;;;1.10;;
36963;SDS011;22878;48.616;35.326;2023-06-05T09:42:04;4.10;;;1.40;;
36963;SDS011;22878;48.616;35.326;2023-06-05T09:44:30;9.30;;;1.50;;
36963;SDS011;22878;48.616;35.326;2023-06-05T09:47:00;5.00;;;1.40;;
36963;SDS011;22878;48.616;35.326;2023-06-05T09:49:31;6.40;;;1.50;;
36963;SDS011;22878;48.616;35.326;2023-06-05T09:51:59;2.40;;;1.10;;
36963;SDS011;22878;48.616;35.326;2023-06-05T09:54:29;6.80;;;1.40;;
36963;SDS011;22878;48.616;35.326;2023-06-05T09:56:59;14.20;;;1.50;;
36963;SDS011;22878;48.616;35.326;2023-06-05T09:59:27;2.40;;;1.20;;
36963;SDS011;22878;48.616;35.326;2023-06-05T10:02:00;1.70;;;1.30;;
36963;SDS011;22878;48.616;35.326;2023-06-05T10:04:29;4.40;;;1.20;;
36963;SDS011;22878;48.616;35.326;2023-06-05T10:07:02;2.60;;;1.20;;
36963;SDS011;22878;48.616;35.326;2023-06-05T10:09:30;8.10;;;1.30;;
36963;SDS011;22878;48.616;35.326;2023-06-05T10:11:59;3.20;;;1.30;;
36963;SDS011;22878;48.616;35.326;2023-06-05T10:14:24;9.60;;;1.30;;
36963;SDS011;22878;48.616;35.326;2023-06-05T10:16:51;5.30;;;1.20;;
36963;SDS011;22878;48.616;35.326;2023-06-05T10:19:20;2.20;;;1.10;;
36963;SDS011;22878;48.616;35.326;2023-06-05T10:21:47;25.40;;;2.70;;
36963;SDS011;22878;48.616;35.326;2023-06-05T10:24:20;3.40;;;1.20;;
36963;SDS011;22878;48.616;35.326;2023-06-05T10:37:39;11.00;;;1.70;;
36963;SDS011;22878;48.616;35.326;2023-06-05T10:40:12;3.50;;;1.40;;
36963;SDS011;22878;48.616;35.326;2023-06-05T10:42:41;17.00;;;2.20;;
36963;SDS011;22878;48.616;35.326;2023-06-05T10:45:07;5.80;;;1.30;;
36963;SDS011;22878;48.616;35.326;2023-06-05T10:52:44;3.80;;;1.30;;
36963;SDS011;22878;48.616;35.326;2023-06-05T10:55:14;2.20;;;1.20;;
36963;SDS011;22878;48.616;35.326;2023-06-05T11:00:28;9.50;;;1.50;;
36963;SDS011;22878;48.616;35.326;2023-06-05T11:02:54;4.00;;;1.20;;
36963;SDS011;22878;48.616;35.326;2023-06-05T11:05:20;3.40;;;1.20;;
36963;SDS011;22878;48.616;35.326;2023-06-05T11:07:45;6.00;;;1.20;;
36963;SDS011;22878;48.616;35.326;2023-06-05T11:10:12;3.10;;;1.30;;
36963;SDS011;22878;48.616;35.326;2023-06-05T11:15:16;7.50;;;1.30;;
36963;SDS011;22878;48.616;35.326;2023-06-05T11:20:56;6.00;;;1.40;;
36963;SDS011;22878;48.616;35.326;2023-06-05T11:23:23;2.10;;;1.10;;
36963;SDS011;22878;48.616;35.326;2023-06-05T11:25:53;6.00;;;1.70;;
36963;SDS011;22878;48.616;35.326;2023-06-05T11:28:37;4.50;;;1.30;;
36963;SDS011;22878;48.616;35.326;2023-06-05T11:31:09;2.70;;;1.50;;
36963;SDS011;22878;48.616;35.326;2023-06-05T11:33:35;4.80;;;1.40;;
36963;SDS011;22878;48.616;35.326;2023-06-05T11:36:04;2.40;;;1.30;;
36963;SDS011;22878;48.616;35.326;2023-06-05T11:38:32;2.30;;;1.30;;
36963;SDS011;22878;48.616;35.326;2023-06-05T11:40:58;2.60;;;1.60;;
36963;SDS011;22878;48.616;35.326;2023-06-05T11:43:24;5.30;;;1.60;;
36963;SDS011;22878;48.616;35.326;2023-06-05T11:45:51;2.90;;;1.50;;
36963;SDS011;22878;48.616;35.326;2023-06-05T11:48:21;2.60;;;1.50;;
36963;SDS011;22878;48.616;35.326;2023-06-05T11:51:01;2.80;;;1.40;;
36963;SDS011;22878;48.616;35.326;2023-06-05T11:53:28;4.30;;;1.40;;
36963;SDS011;22878;48.616;35.326;2023-06-05T11:55:55;7.30;;;2.30;;
36963;SDS011;22878;48.616;35.326;2023-06-05T11:58:28;2.30;;;1.10;;
36963;SDS011;22878;48.616;35.326;2023-06-05T12:01:05;2.60;;;1.20;;
36963;SDS011;22878;48.616;35.326;2023-06-05T12:03:42;18.90;;;1.80;;
36963;SDS011;22878;48.616;35.326;2023-06-05T12:06:11;21.40;;;2.00;;
36963;SDS011;22878;48.616;35.326;2023-06-05T12:08:39;6.30;;;1.30;;
36963;SDS011;22878;48.616;35.326;2023-06-05T12:11:21;9.80;;;1.40;;
36963;SDS011;22878;48.616;35.326;2023-06-05T12:13:48;4.90;;;1.10;;
36963;SDS011;22878;48.616;35.326;2023-06-05T12:16:19;4.20;;;1.10;;
36963;SDS011;22878;48.616;35.326;2023-06-05T12:18:55;4.10;;;1.00;;
36963;SDS011;22878;48.616;35.326;2023-06-05T12:21:21;5.20;;;1.50;;
36963;SDS011;22878;48.616;35.326;2023-06-05T12:23:48;3.70;;;1.20;;
36963;SDS011;22878;48.616;35.326;2023-06-05T12:26:16;2.50;;;1.20;;
36963;SDS011;22878;48.616;35.326;2023-06-05T12:28:43;1.00;;;0.90;;
36963;SDS011;22878;48.616;35.326;2023-06-05T12:31:10;1.90;;;1.30;;
36963;SDS011;22878;48.616;35.326;2023-06-05T12:33:48;8.60;;;1.10;;
36963;SDS011;22878;48.616;35.326;2023-06-05T12:36:14;2.90;;;1.20;;
36963;SDS011;22878;48.616;35.326;2023-06-05T12:38:41;8.70;;;1.20;;
36963;SDS011;22878;48.616;35.326;2023-06-05T12:41:08;9.00;;;1.40;;
36963;SDS011;22878;48.616;35.326;2023-06-05T12:43:36;2.50;;;1.10;;
36963;SDS011;22878;48.616;35.326;2023-06-05T12:46:01;3.30;;;1.10;;
36963;SDS011;22878;48.616;35.326;2023-06-05T12:48:27;2.20;;;0.90;;
36963;SDS011;22878;48.616;35.326;2023-06-05T12:50:53;6.30;;;1.30;;
36963;SDS011;22878;48.616;35.326;2023-06-05T12:53:19;2.90;;;1.20;;
36963;SDS011;22878;48.616;35.326;2023-06-05T12:55:45;5.50;;;1.20;;
36963;SDS011;22878;48.616;35.326;2023-06-05T12:58:11;6.80;;;1.30;;
36963;SDS011;22878;48.616;35.326;2023-06-05T13:00:36;1.60;;;1.10;;
36963;SDS011;22878;48.616;35.326;2023-06-05T13:03:03;2.40;;;0.90;;
36963;SDS011;22878;48.616;35.326;2023-06-05T13:05:29;3.00;;;0.90;;
36963;SDS011;22878;48.616;35.326;2023-06-05T13:07:57;4.50;;;1.10;;
36963;SDS011;22878;48.616;35.326;2023-06-05T13:10:23;3.10;;;1.00;;
36963;SDS011;22878;48.616;35.326;2023-06-05T13:12:48;4.90;;;1.10;;
36963;SDS011;22878;48.616;35.326;2023-06-05T13:15:14;2.40;;;0.90;;
36963;SDS011;22878;48.616;35.326;2023-06-05T13:17:40;1.40;;;0.90;;
36963;SDS011;22878;48.616;35.326;2023-06-05T13:20:05;6.00;;;1.00;;
36963;SDS011;22878;48.616;35.326;2023-06-05T13:22:42;3.20;;;1.20;;
36963;SDS011;22878;48.616;35.326;2023-06-05T13:25:07;3.30;;;1.30;;
36963;SDS011;22878;48.616;35.326;2023-06-05T13:27:34;2.20;;;1.40;;
36963;SDS011;22878;48.616;35.326;2023-06-05T13:29:59;2.70;;;1.00;;
36963;SDS011;22878;48.616;35.326;2023-06-05T13:32:43;5.90;;;1.50;;
36963;SDS011;22878;48.616;35.326;2023-06-05T13:35:10;3.90;;;1.20;;
36963;SDS011;22878;48.616;35.326;2023-06-05T13:37:39;2.90;;;1.10;;
36963;SDS011;22878;48.616;35.326;2023-06-05T13:40:08;6.70;;;1.30;;
36963;SDS011;22878;48.616;35.326;2023-06-05T13:42:35;4.40;;;1.30;;
36963;SDS011;22878;48.616;35.326;2023-06-05T13:45:01;3.80;;;1.40;;
36963;SDS011;22878;48.616;35.326;2023-06-05T13:47:28;1.90;;;1.10;;
36963;SDS011;22878;48.616;35.326;2023-06-05T13:49:53;2.10;;;1.10;;
36963;SDS011;22878;48.616;35.326;2023-06-05T13:52:20;3.40;;;1.30;;
36963;SDS011;22878;48.616;35.326;2023-06-05T13:54:46;2.30;;;1.10;;
36963;SDS011;22878;48.616;35.326;2023-06-05T13:57:11;7.70;;;1.40;;
36963;SDS011;22878;48.616;35.326;2023-06-05T13:59:37;3.90;;;1.30;;
36963;SDS011;22878;48.616;35.326;2023-06-05T14:02:03;3.20;;;1.30;;
36963;SDS011;22878;48.616;35.326;2023-06-05T14:04:49;12.20;;;2.10;;
36963;SDS011;22878;48.616;35.326;2023-06-05T14:07:15;5.70;;;1.30;;
36963;SDS011;22878;48.616;35.326;2023-06-05T14:09:41;2.30;;;1.20;;
36963;SDS011;22878;48.616;35.326;2023-06-05T14:12:07;3.10;;;1.40;;
36963;SDS011;22878;48.616;35.326;2023-06-05T14:14:35;5.60;;;1.20;;
36963;SDS011;22878;48.616;35.326;2023-06-05T14:17:03;4.90;;;1.20;;
36963;SDS011;22878;48.616;35.326;2023-06-05T14:19:29;8.30;;;1.20;;
36963;SDS011;22878;48.616;35.326;2023-06-05T14:21:54;3.10;;;1.30;;
36963;SDS011;22878;48.616;35.326;2023-06-05T14:24:20;13.70;;;1.80;;
36963;SDS011;22878;48.616;35.326;2023-06-05T14:26:46;5.90;;;1.20;;
36963;SDS011;22878;48.616;35.326;2023-06-05T14:29:12;6.20;;;1.40;;
36963;SDS011;22878;48.616;35.326;2023-06-05T14:31:38;9.60;;;1.80;;
36963;SDS011;22878;48.616;35.326;2023-06-05T14:34:03;3.40;;;1.20;;
36963;SDS011;22878;48.616;35.326;2023-06-05T14:36:29;5.50;;;1.60;;
36963;SDS011;22878;48.616;35.326;2023-06-05T14:38:55;3.80;;;1.10;;
36963;SDS011;22878;48.616;35.326;2023-06-05T14:41:23;8.70;;;1.60;;
36963;SDS011;22878;48.616;35.326;2023-06-05T14:43:48;6.20;;;1.60;;
36963;SDS011;22878;48.616;35.326;2023-06-05T14:46:14;4.30;;;1.30;;
36963;SDS011;22878;48.616;35.326;2023-06-05T14:48:40;4.90;;;2.20;;
36963;SDS011;22878;48.616;35.326;2023-06-05T14:51:06;5.40;;;2.00;;
36963;SDS011;22878;48.616;35.326;2023-06-05T14:53:32;6.90;;;1.70;;
36963;SDS011;22878;48.616;35.326;2023-06-05T14:55:58;5.70;;;1.70;;
36963;SDS011;22878;48.616;35.326;2023-06-05T14:58:27;3.90;;;1.40;;
36963;SDS011;22878;48.616;35.326;2023-06-05T15:00:52;5.70;;;1.60;;
36963;SDS011;22878;48.616;35.326;2023-06-05T15:03:18;6.70;;;1.40;;
36963;SDS011;22878;48.616;35.326;2023-06-05T15:05:43;6.30;;;1.50;;